sensor_id;sensor_type;location;lat;lon;timestamp;pressure;altitude;pressure_sealevel;temperature;humidity
73952;BME280;62304;47.662;18.324;2023-11-19T00:02:22;100936.84;;;0.63;95.99
73952;BME280;62304;47.662;18.324;2023-11-19T00:05:25;100928.44;;;0.59;97.26
73952;BME280;62304;47.662;18.324;2023-11-19T00:08:30;100925.16;;;0.81;96.14
73952;BME280;62304;47.662;18.324;2023-11-19T00:11:33;100935.44;;;0.89;96.33
73952;BME280;62304;47.662;18.324;2023-11-19T00:14:35;100946.66;;;0.64;97.06
73952;BME280;62304;47.662;18.324;2023-11-19T00:17:42;100949.03;;;0.70;96.69
73952;BME280;62304;47.662;18.324;2023-11-19T00:20:48;100954.56;;;0.65;97.55
73952;BME280;62304;47.662;18.324;2023-11-19T00:23:52;100940.75;;;0.80;97.21
73952;BME280;62304;47.662;18.324;2023-11-19T00:26:54;100931.53;;;0.95;96.38
73952;BME280;62304;47.662;18.324;2023-11-19T00:29:57;100932.13;;;0.92;96.74
73952;BME280;62304;47.662;18.324;2023-11-19T00:33:01;100926.22;;;0.61;98.25
73952;BME280;62304;47.662;18.324;2023-11-19T00:36:04;100924.66;;;0.55;98.45
73952;BME280;62304;47.662;18.324;2023-11-19T00:39:07;100930.50;;;0.44;99.49
73952;BME280;62304;47.662;18.324;2023-11-19T00:42:10;100924.94;;;0.30;100.00
73952;BME280;62304;47.662;18.324;2023-11-19T00:45:13;100926.53;;;0.55;98.50
73952;BME280;62304;47.662;18.324;2023-11-19T00:48:17;100920.75;;;0.61;99.25
73952;BME280;62304;47.662;18.324;2023-11-19T00:51:19;100921.06;;;0.36;100.00
73952;BME280;62304;47.662;18.324;2023-11-19T00:54:23;100914.72;;;0.41;100.00
73952;BME280;62304;47.662;18.324;2023-11-19T00:57:28;100908.88;;;0.52;100.00
73952;BME280;62304;47.662;18.324;2023-11-19T01:00:31;100903.88;;;0.59;100.00
73952;BME280;62304;47.662;18.324;2023-11-19T01:03:34;100901.53;;;0.71;99.33
73952;BME280;62304;47.662;18.324;2023-11-19T01:06:38;100898.19;;;0.56;100.00
73952;BME280;62304;47.662;18.324;2023-11-19T01:09:51;100902.63;;;0.47;100.00
73952;BME280;62304;47.662;18.324;2023-11-19T01:12:54;100894.47;;;0.47;100.00
73952;BME280;62304;47.662;18.324;2023-11-19T01:15:57;100891.78;;;0.42;100.00
73952;BME280;62304;47.662;18.324;2023-11-19T01:19:00;100887.84;;;0.53;100.00
73952;BME280;62304;47.662;18.324;2023-11-19T01:22:19;100898.00;;;0.47;100.00
73952;BME280;62304;47.662;18.324;2023-11-19T01:25:23;100893.22;;;0.81;100.00
73952;BME280;62304;47.662;18.324;2023-11-19T01:28:25;100890.87;;;0.93;100.00
73952;BME280;62304;47.662;18.324;2023-11-19T01:31:29;100894.94;;;1.14;99.52
73952;BME280;62304;47.662;18.324;2023-11-19T01:34:32;100898.03;;;1.08;97.90
73952;BME280;62304;47.662;18.324;2023-11-19T01:37:35;100878.78;;;0.99;98.11
73952;BME280;62304;47.662;18.324;2023-11-19T01:40:39;100879.00;;;1.03;98.77
73952;BME280;62304;47.662;18.324;2023-11-19T01:43:42;100868.75;;;0.95;98.57
73952;BME280;62304;47.662;18.324;2023-11-19T01:46:46;100878.91;;;0.89;99.48
73952;BME280;62304;47.662;18.324;2023-11-19T01:49:53;100868.00;;;1.08;99.95
73952;BME280;62304;47.662;18.324;2023-11-19T01:52:56;100866.97;;;1.22;99.91
73952;BME280;62304;47.662;18.324;2023-11-19T01:56:05;100856.03;;;1.22;99.35
73952;BME280;62304;47.662;18.324;2023-11-19T01:59:12;100855.88;;;1.32;99.15
73952;BME280;62304;47.662;18.324;2023-11-19T02:02:16;100854.69;;;1.38;98.69
73952;BME280;62304;47.662;18.324;2023-11-19T02:05:23;100855.38;;;1.30;99.27
73952;BME280;62304;47.662;18.324;2023-11-19T02:08:27;100849.84;;;1.35;99.61
73952;BME280;62304;47.662;18.324;2023-11-19T02:11:32;100858.97;;;1.44;98.97
73952;BME280;62304;47.662;18.324;2023-11-19T02:14:35;100854.03;;;1.46;98.29
73952;BME280;62304;47.662;18.324;2023-11-19T02:17:38;100839.84;;;1.26;99.18
73952;BME280;62304;47.662;18.324;2023-11-19T02:20:41;100846.91;;;1.13;99.60
73952;BME280;62304;47.662;18.324;2023-11-19T02:23:45;100849.41;;;0.91;100.00
73952;BME280;62304;47.662;18.324;2023-11-19T02:27:07;100847.75;;;1.09;100.00
73952;BME280;62304;47.662;18.324;2023-11-19T02:30:13;100842.22;;;1.32;99.64
73952;BME280;62304;47.662;18.324;2023-11-19T02:33:17;100837.59;;;1.14;100.00
73952;BME280;62304;47.662;18.324;2023-11-19T02:36:20;100830.03;;;0.88;100.00
73952;BME280;62304;47.662;18.324;2023-11-19T02:39:24;100816.16;;;0.84;100.00
73952;BME280;62304;47.662;18.324;2023-11-19T02:42:27;100814.34;;;0.98;100.00
73952;BME280;62304;47.662;18.324;2023-11-19T02:45:30;100812.25;;;0.90;100.00
73952;BME280;62304;47.662;18.324;2023-11-19T02:48:37;100813.22;;;0.99;100.00
73952;BME280;62304;47.662;18.324;2023-11-19T02:51:41;100816.78;;;1.18;100.00
73952;BME280;62304;47.662;18.324;2023-11-19T02:54:44;100800.19;;;1.28;100.00
73952;BME280;62304;47.662;18.324;2023-11-19T02:57:47;100790.44;;;1.41;99.54
73952;BME280;62304;47.662;18.324;2023-11-19T03:00:51;100798.12;;;1.39;99.61
73952;BME280;62304;47.662;18.324;2023-11-19T03:04:01;100787.19;;;1.39;99.42
73952;BME280;62304;47.662;18.324;2023-11-19T03:07:06;100783.47;;;1.48;99.14
73952;BME280;62304;47.662;18.324;2023-11-19T03:10:10;100793.22;;;1.54;98.87
73952;BME280;62304;47.662;18.324;2023-11-19T03:13:16;100798.50;;;1.64;98.15
73952;BME280;62304;47.662;18.324;2023-11-19T03:16:20;100795.28;;;1.62;97.82
73952;BME280;62304;47.662;18.324;2023-11-19T03:19:24;100800.53;;;1.72;97.48
73952;BME280;62304;47.662;18.324;2023-11-19T03:22:27;100807.41;;;1.70;97.53
73952;BME280;62304;47.662;18.324;2023-11-19T03:25:30;100806.69;;;1.64;97.45
73952;BME280;62304;47.662;18.324;2023-11-19T03:28:36;100785.53;;;1.70;97.98
73952;BME280;62304;47.662;18.324;2023-11-19T03:31:42;100781.50;;;1.81;97.46
73952;BME280;62304;47.662;18.324;2023-11-19T03:34:45;100770.81;;;1.84;96.96
73952;BME280;62304;47.662;18.324;2023-11-19T03:37:49;100772.22;;;1.82;96.98
73952;BME280;62304;47.662;18.324;2023-11-19T03:40:51;100749.91;;;1.88;96.79
73952;BME280;62304;47.662;18.324;2023-11-19T03:43:55;100749.91;;;1.75;96.89
73952;BME280;62304;47.662;18.324;2023-11-19T03:46:58;100736.94;;;1.67;97.05
73952;BME280;62304;47.662;18.324;2023-11-19T03:50:02;100737.75;;;1.67;97.26
73952;BME280;62304;47.662;18.324;2023-11-19T03:53:05;100726.00;;;1.53;97.76
73952;BME280;62304;47.662;18.324;2023-11-19T03:56:08;100721.84;;;1.10;100.00
73952;BME280;62304;47.662;18.324;2023-11-19T03:59:12;100715.34;;;1.06;100.00
73952;BME280;62304;47.662;18.324;2023-11-19T04:02:16;100712.78;;;1.28;100.00
73952;BME280;62304;47.662;18.324;2023-11-19T04:05:19;100722.09;;;1.27;99.78
73952;BME280;62304;47.662;18.324;2023-11-19T04:08:22;100717.72;;;1.26;100.00
73952;BME280;62304;47.662;18.324;2023-11-19T04:11:25;100707.19;;;1.20;100.00
73952;BME280;62304;47.662;18.324;2023-11-19T04:14:28;100706.44;;;1.33;99.63
73952;BME280;62304;47.662;18.324;2023-11-19T04:17:31;100691.75;;;1.42;98.99
73952;BME280;62304;47.662;18.324;2023-11-19T04:20:34;100682.44;;;1.43;98.89
73952;BME280;62304;47.662;18.324;2023-11-19T04:23:37;100692.69;;;1.51;98.41
73952;BME280;62304;47.662;18.324;2023-11-19T04:26:44;100690.06;;;1.60;98.11
73952;BME280;62304;47.662;18.324;2023-11-19T04:29:48;100699.69;;;1.57;97.97
73952;BME280;62304;47.662;18.324;2023-11-19T04:32:53;100696.84;;;1.62;98.10
73952;BME280;62304;47.662;18.324;2023-11-19T04:35:56;100705.75;;;1.68;98.33
73952;BME280;62304;47.662;18.324;2023-11-19T04:39:00;100701.91;;;1.82;98.07
73952;BME280;62304;47.662;18.324;2023-11-19T04:42:03;100709.81;;;1.84;98.37
73952;BME280;62304;47.662;18.324;2023-11-19T04:45:07;100703.53;;;1.83;97.95
73952;BME280;62304;47.662;18.324;2023-11-19T04:48:13;100702.31;;;1.89;97.70
73952;BME280;62304;47.662;18.324;2023-11-19T04:51:16;100702.72;;;1.96;97.58
73952;BME280;62304;47.662;18.324;2023-11-19T04:54:19;100699.47;;;2.08;97.58
73952;BME280;62304;47.662;18.324;2023-11-19T04:57:22;100709.72;;;2.16;97.25
73952;BME280;62304;47.662;18.324;2023-11-19T05:00:25;100718.78;;;2.25;96.79
73952;BME280;62304;47.662;18.324;2023-11-19T05:03:28;100709.97;;;2.28;96.09
73952;BME280;62304;47.662;18.324;2023-11-19T05:06:31;100711.91;;;2.27;96.17
73952;BME280;62304;47.662;18.324;2023-11-19T05:09:34;100713.66;;;2.23;96.64
73952;BME280;62304;47.662;18.324;2023-11-19T05:12:37;100697.00;;;2.33;96.80
73952;BME280;62304;47.662;18.324;2023-11-19T05:15:41;100705.50;;;2.45;97.14
73952;BME280;62304;47.662;18.324;2023-11-19T05:18:44;100693.91;;;2.48;96.86
73952;BME280;62304;47.662;18.324;2023-11-19T05:21:47;100691.09;;;2.40;96.73
73952;BME280;62304;47.662;18.324;2023-11-19T05:24:50;100691.37;;;2.52;96.68
73952;BME280;62304;47.662;18.324;2023-11-19T05:27:53;100699.72;;;2.69;95.84
73952;BME280;62304;47.662;18.324;2023-11-19T05:30:57;100686.31;;;2.59;96.13
73952;BME280;62304;47.662;18.324;2023-11-19T05:34:00;100686.31;;;2.59;96.01
73952;BME280;62304;47.662;18.324;2023-11-19T05:37:03;100673.81;;;2.53;95.25
73952;BME280;62304;47.662;18.324;2023-11-19T05:40:08;100672.88;;;2.35;95.36
73952;BME280;62304;47.662;18.324;2023-11-19T05:43:18;100658.44;;;2.43;95.02
73952;BME280;62304;47.662;18.324;2023-11-19T05:46:21;100669.03;;;2.36;95.12
73952;BME280;62304;47.662;18.324;2023-11-19T05:49:25;100668.59;;;2.43;96.38
73952;BME280;62304;47.662;18.324;2023-11-19T05:52:28;100671.91;;;2.53;95.74
73952;BME280;62304;47.662;18.324;2023-11-19T05:55:36;100669.94;;;2.67;95.76
73952;BME280;62304;47.662;18.324;2023-11-19T05:58:47;100668.81;;;2.68;95.28
73952;BME280;62304;47.662;18.324;2023-11-19T06:01:52;100667.37;;;2.71;95.34
73952;BME280;62304;47.662;18.324;2023-11-19T06:04:55;100655.44;;;2.67;94.33
73952;BME280;62304;47.662;18.324;2023-11-19T06:07:58;100665.25;;;2.68;94.14
73952;BME280;62304;47.662;18.324;2023-11-19T06:11:01;100651.88;;;2.66;94.57
73952;BME280;62304;47.662;18.324;2023-11-19T06:14:04;100642.41;;;2.72;94.97
73952;BME280;62304;47.662;18.324;2023-11-19T06:17:08;100643.41;;;2.76;95.39
73952;BME280;62304;47.662;18.324;2023-11-19T06:20:13;100637.31;;;2.79;95.13
73952;BME280;62304;47.662;18.324;2023-11-19T06:23:17;100639.06;;;2.75;94.86
73952;BME280;62304;47.662;18.324;2023-11-19T06:26:20;100637.69;;;2.64;95.18
73952;BME280;62304;47.662;18.324;2023-11-19T06:29:24;100630.22;;;2.56;95.21
73952;BME280;62304;47.662;18.324;2023-11-19T06:32:27;100621.56;;;2.63;95.76
73952;BME280;62304;47.662;18.324;2023-11-19T06:35:31;100626.50;;;2.52;96.31
73952;BME280;62304;47.662;18.324;2023-11-19T06:38:39;100614.41;;;2.53;96.13
73952;BME280;62304;47.662;18.324;2023-11-19T06:41:45;100619.13;;;2.61;96.10
73952;BME280;62304;47.662;18.324;2023-11-19T06:44:48;100613.03;;;2.64;96.04
73952;BME280;62304;47.662;18.324;2023-11-19T06:47:52;100601.16;;;2.69;96.04
73952;BME280;62304;47.662;18.324;2023-11-19T06:50:55;100582.06;;;2.55;95.87
73952;BME280;62304;47.662;18.324;2023-11-19T06:53:58;100587.09;;;2.62;95.93
73952;BME280;62304;47.662;18.324;2023-11-19T06:57:02;100582.25;;;2.59;95.98
73952;BME280;62304;47.662;18.324;2023-11-19T07:00:06;100585.78;;;2.59;95.55
73952;BME280;62304;47.662;18.324;2023-11-19T07:03:09;100591.16;;;2.64;95.07
73952;BME280;62304;47.662;18.324;2023-11-19T07:06:13;100598.09;;;2.70;95.52
73952;BME280;62304;47.662;18.324;2023-11-19T07:09:16;100597.31;;;2.70;94.87
73952;BME280;62304;47.662;18.324;2023-11-19T07:12:19;100602.84;;;2.78;94.57
73952;BME280;62304;47.662;18.324;2023-11-19T07:15:22;100605.94;;;2.85;94.24
73952;BME280;62304;47.662;18.324;2023-11-19T07:18:25;100602.56;;;2.88;94.36
73952;BME280;62304;47.662;18.324;2023-11-19T07:21:29;100602.13;;;2.95;94.50
73952;BME280;62304;47.662;18.324;2023-11-19T07:24:32;100610.72;;;3.02;95.13
73952;BME280;62304;47.662;18.324;2023-11-19T07:27:35;100621.72;;;3.10;95.21
73952;BME280;62304;47.662;18.324;2023-11-19T07:30:38;100623.53;;;3.15;94.47
73952;BME280;62304;47.662;18.324;2023-11-19T07:33:41;100630.13;;;3.14;93.61
73952;BME280;62304;47.662;18.324;2023-11-19T07:36:47;100630.31;;;3.17;94.12
73952;BME280;62304;47.662;18.324;2023-11-19T07:39:50;100632.94;;;3.22;94.06
73952;BME280;62304;47.662;18.324;2023-11-19T07:42:53;100631.97;;;3.27;94.27
73952;BME280;62304;47.662;18.324;2023-11-19T07:45:56;100623.63;;;3.32;94.35
73952;BME280;62304;47.662;18.324;2023-11-19T07:49:01;100623.78;;;3.35;94.85
73952;BME280;62304;47.662;18.324;2023-11-19T07:52:05;100623.00;;;3.43;94.09
73952;BME280;62304;47.662;18.324;2023-11-19T07:55:23;100619.50;;;3.51;93.70
73952;BME280;62304;47.662;18.324;2023-11-19T07:58:26;100599.66;;;3.54;94.94
73952;BME280;62304;47.662;18.324;2023-11-19T08:01:29;100601.78;;;3.57;94.78
73952;BME280;62304;47.662;18.324;2023-11-19T08:04:32;100569.69;;;3.58;94.55
73952;BME280;62304;47.662;18.324;2023-11-19T08:07:36;100561.47;;;3.58;95.15
73952;BME280;62304;47.662;18.324;2023-11-19T08:10:40;100572.87;;;3.51;94.54
73952;BME280;62304;47.662;18.324;2023-11-19T08:13:43;100573.38;;;3.53;94.27
73952;BME280;62304;47.662;18.324;2023-11-19T08:16:46;100568.87;;;3.57;94.15
73952;BME280;62304;47.662;18.324;2023-11-19T08:19:48;100578.38;;;3.51;94.10
73952;BME280;62304;47.662;18.324;2023-11-19T08:22:52;100597.25;;;3.53;93.57
73952;BME280;62304;47.662;18.324;2023-11-19T08:25:55;100561.94;;;3.51;93.44
73952;BME280;62304;47.662;18.324;2023-11-19T08:28:58;100498.53;;;3.53;94.36
73952;BME280;62304;47.662;18.324;2023-11-19T08:32:01;100520.50;;;3.61;94.74
73952;BME280;62304;47.662;18.324;2023-11-19T08:35:06;100536.16;;;3.69;94.90
73952;BME280;62304;47.662;18.324;2023-11-19T08:38:09;100525.19;;;3.69;95.41
73952;BME280;62304;47.662;18.324;2023-11-19T08:41:12;100529.53;;;3.70;95.80
73952;BME280;62304;47.662;18.324;2023-11-19T08:44:15;100513.06;;;3.70;96.38
73952;BME280;62304;47.662;18.324;2023-11-19T08:47:18;100524.87;;;3.79;94.88
73952;BME280;62304;47.662;18.324;2023-11-19T08:50:21;100525.19;;;3.86;94.77
73952;BME280;62304;47.662;18.324;2023-11-19T08:53:25;100535.69;;;3.84;94.58
73952;BME280;62304;47.662;18.324;2023-11-19T08:56:29;100543.47;;;3.91;94.89
73952;BME280;62304;47.662;18.324;2023-11-19T08:59:36;100539.44;;;3.97;93.85
73952;BME280;62304;47.662;18.324;2023-11-19T09:02:42;100521.16;;;4.01;93.74
73952;BME280;62304;47.662;18.324;2023-11-19T09:05:46;100536.19;;;4.03;94.06
73952;BME280;62304;47.662;18.324;2023-11-19T09:08:49;100547.31;;;4.07;93.62
73952;BME280;62304;47.662;18.324;2023-11-19T09:11:52;100546.22;;;4.16;93.10
73952;BME280;62304;47.662;18.324;2023-11-19T09:14:55;100538.78;;;4.08;92.89
73952;BME280;62304;47.662;18.324;2023-11-19T09:17:58;100524.56;;;4.06;93.68
73952;BME280;62304;47.662;18.324;2023-11-19T09:21:02;100522.00;;;4.10;92.98
73952;BME280;62304;47.662;18.324;2023-11-19T09:24:05;100528.44;;;4.22;92.61
73952;BME280;62304;47.662;18.324;2023-11-19T09:27:10;100502.28;;;4.25;92.29
73952;BME280;62304;47.662;18.324;2023-11-19T09:30:14;100508.37;;;4.47;92.55
73952;BME280;62304;47.662;18.324;2023-11-19T09:33:20;100497.38;;;4.56;91.83
73952;BME280;62304;47.662;18.324;2023-11-19T09:36:23;100501.09;;;4.51;91.03
73952;BME280;62304;47.662;18.324;2023-11-19T09:39:27;100488.84;;;4.40;91.54
73952;BME280;62304;47.662;18.324;2023-11-19T09:42:45;100495.31;;;4.44;91.57
73952;BME280;62304;47.662;18.324;2023-11-19T09:45:51;100475.75;;;4.54;91.52
73952;BME280;62304;47.662;18.324;2023-11-19T09:48:55;100467.81;;;4.61;91.22
73952;BME280;62304;47.662;18.324;2023-11-19T09:51:59;100462.00;;;4.63;91.69
73952;BME280;62304;47.662;18.324;2023-11-19T09:55:02;100454.84;;;4.70;90.48
73952;BME280;62304;47.662;18.324;2023-11-19T09:58:06;100448.91;;;4.60;89.52
73952;BME280;62304;47.662;18.324;2023-11-19T10:01:10;100464.88;;;4.66;89.55
73952;BME280;62304;47.662;18.324;2023-11-19T10:04:19;100470.84;;;4.68;89.40
73952;BME280;62304;47.662;18.324;2023-11-19T10:07:22;100467.78;;;4.70;89.24
73952;BME280;62304;47.662;18.324;2023-11-19T10:10:29;100464.25;;;4.61;89.39
73952;BME280;62304;47.662;18.324;2023-11-19T10:13:36;100455.56;;;4.50;88.27
73952;BME280;62304;47.662;18.324;2023-11-19T10:16:44;100438.44;;;4.45;88.71
73952;BME280;62304;47.662;18.324;2023-11-19T10:19:49;100435.66;;;4.53;89.43
73952;BME280;62304;47.662;18.324;2023-11-19T10:22:53;100429.81;;;4.63;88.58
73952;BME280;62304;47.662;18.324;2023-11-19T10:26:03;100425.28;;;4.67;88.62
73952;BME280;62304;47.662;18.324;2023-11-19T10:29:13;100410.09;;;4.70;88.19
73952;BME280;62304;47.662;18.324;2023-11-19T10:32:16;100398.28;;;4.69;87.82
73952;BME280;62304;47.662;18.324;2023-11-19T10:35:29;100398.59;;;4.76;87.61
73952;BME280;62304;47.662;18.324;2023-11-19T10:38:31;100390.81;;;4.78;87.00
73952;BME280;62304;47.662;18.324;2023-11-19T10:41:35;100384.03;;;4.76;85.95
73952;BME280;62304;47.662;18.324;2023-11-19T10:44:38;100390.97;;;4.82;85.55
73952;BME280;62304;47.662;18.324;2023-11-19T10:47:42;100376.91;;;4.83;85.65
73952;BME280;62304;47.662;18.324;2023-11-19T10:50:46;100366.88;;;4.87;84.72
73952;BME280;62304;47.662;18.324;2023-11-19T10:53:56;100356.78;;;4.91;84.49
73952;BME280;62304;47.662;18.324;2023-11-19T10:57:05;100357.56;;;5.00;84.15
73952;BME280;62304;47.662;18.324;2023-11-19T11:00:11;100355.06;;;5.07;83.61
73952;BME280;62304;47.662;18.324;2023-11-19T11:03:19;100353.34;;;5.03;82.72
73952;BME280;62304;47.662;18.324;2023-11-19T11:06:23;100344.63;;;5.01;82.37
73952;BME280;62304;47.662;18.324;2023-11-19T11:09:27;100334.88;;;5.03;82.61
73952;BME280;62304;47.662;18.324;2023-11-19T11:12:37;100336.84;;;5.03;81.61
73952;BME280;62304;47.662;18.324;2023-11-19T11:15:41;100336.16;;;5.06;81.15
73952;BME280;62304;47.662;18.324;2023-11-19T11:18:46;100323.03;;;5.11;81.18
73952;BME280;62304;47.662;18.324;2023-11-19T11:21:55;100329.44;;;5.24;81.45
73952;BME280;62304;47.662;18.324;2023-11-19T11:31:44;100317.84;;;5.71;79.46
73952;BME280;62304;47.662;18.324;2023-11-19T11:35:24;100310.97;;;5.77;79.61
73952;BME280;62304;47.662;18.324;2023-11-19T11:38:36;100313.69;;;5.86;78.97
73952;BME280;62304;47.662;18.324;2023-11-19T11:41:42;100299.47;;;5.84;78.36
73952;BME280;62304;47.662;18.324;2023-11-19T11:45:11;100297.03;;;5.82;78.29
73952;BME280;62304;47.662;18.324;2023-11-19T11:48:17;100290.16;;;5.88;78.46
73952;BME280;62304;47.662;18.324;2023-11-19T11:54:45;100291.37;;;5.79;77.51
73952;BME280;62304;47.662;18.324;2023-11-19T11:57:49;100284.91;;;5.63;77.19
73952;BME280;62304;47.662;18.324;2023-11-19T12:00:52;100274.19;;;5.49;77.35
73952;BME280;62304;47.662;18.324;2023-11-19T12:03:56;100261.94;;;5.47;78.05
73952;BME280;62304;47.662;18.324;2023-11-19T12:07:16;100270.06;;;5.43;78.39
73952;BME280;62304;47.662;18.324;2023-11-19T12:10:20;100270.84;;;5.44;78.56
73952;BME280;62304;47.662;18.324;2023-11-19T12:13:46;100263.41;;;5.44;79.62
73952;BME280;62304;47.662;18.324;2023-11-19T12:16:50;100272.44;;;5.45;79.32
73952;BME280;62304;47.662;18.324;2023-11-19T12:19:54;100268.16;;;5.35;79.02
73952;BME280;62304;47.662;18.324;2023-11-19T12:22:57;100262.41;;;5.28;79.43
73952;BME280;62304;47.662;18.324;2023-11-19T12:26:00;100256.47;;;5.26;79.90
73952;BME280;62304;47.662;18.324;2023-11-19T12:29:03;100249.34;;;5.25;79.81
73952;BME280;62304;47.662;18.324;2023-11-19T12:32:11;100244.19;;;5.24;80.12
73952;BME280;62304;47.662;18.324;2023-11-19T12:35:17;100244.41;;;5.19;80.16
73952;BME280;62304;47.662;18.324;2023-11-19T12:38:24;100230.31;;;5.20;80.60
73952;BME280;62304;47.662;18.324;2023-11-19T12:41:27;100236.72;;;5.24;81.12
73952;BME280;62304;47.662;18.324;2023-11-19T12:44:31;100213.25;;;5.27;81.18
73952;BME280;62304;47.662;18.324;2023-11-19T12:47:40;100216.50;;;5.29;81.41
73952;BME280;62304;47.662;18.324;2023-11-19T12:50:51;100216.81;;;5.27;81.39
73952;BME280;62304;47.662;18.324;2023-11-19T12:53:56;100215.00;;;5.31;81.28
73952;BME280;62304;47.662;18.324;2023-11-19T12:57:02;100210.22;;;5.40;81.56
73952;BME280;62304;47.662;18.324;2023-11-19T13:00:06;100205.53;;;5.41;81.41
73952;BME280;62304;47.662;18.324;2023-11-19T13:03:13;100215.50;;;5.45;81.39
73952;BME280;62304;47.662;18.324;2023-11-19T13:06:32;100222.28;;;5.48;81.32
73952;BME280;62304;47.662;18.324;2023-11-19T13:09:36;100217.78;;;5.43;81.24
73952;BME280;62304;47.662;18.324;2023-11-19T13:12:40;100212.38;;;5.35;81.48
73952;BME280;62304;47.662;18.324;2023-11-19T13:15:43;100206.06;;;5.34;82.13
73952;BME280;62304;47.662;18.324;2023-11-19T13:18:48;100188.44;;;5.47;81.41
73952;BME280;62304;47.662;18.324;2023-11-19T13:21:51;100189.50;;;5.55;80.99
73952;BME280;62304;47.662;18.324;2023-11-19T13:24:54;100185.38;;;5.49;80.84
73952;BME280;62304;47.662;18.324;2023-11-19T13:27:58;100183.88;;;5.51;80.60
73952;BME280;62304;47.662;18.324;2023-11-19T13:31:02;100191.56;;;5.46;80.64
73952;BME280;62304;47.662;18.324;2023-11-19T13:34:06;100200.59;;;5.46;80.67
73952;BME280;62304;47.662;18.324;2023-11-19T13:37:10;100190.09;;;5.48;80.74
73952;BME280;62304;47.662;18.324;2023-11-19T13:40:14;100186.63;;;5.51;81.36
73952;BME280;62304;47.662;18.324;2023-11-19T13:43:18;100183.66;;;5.44;82.57
73952;BME280;62304;47.662;18.324;2023-11-19T13:46:24;100183.25;;;5.34;84.40
73952;BME280;62304;47.662;18.324;2023-11-19T13:49:27;100183.31;;;5.13;85.81
73952;BME280;62304;47.662;18.324;2023-11-19T13:52:31;100180.31;;;5.06;87.71
73952;BME280;62304;47.662;18.324;2023-11-19T13:55:34;100180.84;;;5.00;88.07
73952;BME280;62304;47.662;18.324;2023-11-19T13:58:38;100175.72;;;4.98;88.67
73952;BME280;62304;47.662;18.324;2023-11-19T14:01:43;100179.56;;;4.97;89.47
73952;BME280;62304;47.662;18.324;2023-11-19T14:04:46;100179.00;;;4.92;90.43
73952;BME280;62304;47.662;18.324;2023-11-19T14:07:49;100182.75;;;4.87;90.53
73952;BME280;62304;47.662;18.324;2023-11-19T14:10:54;100198.62;;;4.82;91.09
73952;BME280;62304;47.662;18.324;2023-11-19T14:13:58;100197.16;;;4.84;90.91
73952;BME280;62304;47.662;18.324;2023-11-19T14:17:02;100191.53;;;4.81;91.48
73952;BME280;62304;47.662;18.324;2023-11-19T14:20:09;100184.62;;;4.75;93.17
73952;BME280;62304;47.662;18.324;2023-11-19T14:23:16;100190.72;;;4.80;92.54
73952;BME280;62304;47.662;18.324;2023-11-19T14:26:18;100197.53;;;4.95;92.25
73952;BME280;62304;47.662;18.324;2023-11-19T14:29:21;100203.44;;;5.05;90.91
73952;BME280;62304;47.662;18.324;2023-11-19T14:32:24;100214.56;;;5.09;92.51
73952;BME280;62304;47.662;18.324;2023-11-19T14:35:27;100227.16;;;5.10;92.73
73952;BME280;62304;47.662;18.324;2023-11-19T14:38:33;100223.81;;;5.25;91.16
73952;BME280;62304;47.662;18.324;2023-11-19T14:41:36;100233.31;;;5.27;90.52
73952;BME280;62304;47.662;18.324;2023-11-19T14:44:39;100212.63;;;5.42;90.80
73952;BME280;62304;47.662;18.324;2023-11-19T14:47:42;100201.03;;;5.36;90.46
73952;BME280;62304;47.662;18.324;2023-11-19T14:50:46;100197.38;;;5.32;91.33
73952;BME280;62304;47.662;18.324;2023-11-19T14:53:50;100193.47;;;5.33;92.45
73952;BME280;62304;47.662;18.324;2023-11-19T14:56:52;100182.00;;;5.31;93.08
73952;BME280;62304;47.662;18.324;2023-11-19T14:59:56;100201.03;;;5.36;93.16
73952;BME280;62304;47.662;18.324;2023-11-19T15:02:58;100197.19;;;5.49;92.74
73952;BME280;62304;47.662;18.324;2023-11-19T15:06:02;100194.66;;;5.44;91.58
73952;BME280;62304;47.662;18.324;2023-11-19T15:09:05;100189.34;;;5.39;92.15
73952;BME280;62304;47.662;18.324;2023-11-19T15:12:11;100190.94;;;5.28;92.03
73952;BME280;62304;47.662;18.324;2023-11-19T15:15:14;100187.62;;;5.35;91.73
73952;BME280;62304;47.662;18.324;2023-11-19T15:18:17;100185.47;;;5.40;92.09
73952;BME280;62304;47.662;18.324;2023-11-19T15:21:20;100197.09;;;5.58;93.34
73952;BME280;62304;47.662;18.324;2023-11-19T15:24:24;100203.16;;;5.63;94.13
73952;BME280;62304;47.662;18.324;2023-11-19T15:27:28;100205.03;;;5.71;93.09
73952;BME280;62304;47.662;18.324;2023-11-19T15:30:32;100191.03;;;5.64;92.51
73952;BME280;62304;47.662;18.324;2023-11-19T15:33:35;100195.81;;;5.55;93.88
73952;BME280;62304;47.662;18.324;2023-11-19T15:36:38;100201.66;;;5.54;93.49
73952;BME280;62304;47.662;18.324;2023-11-19T15:39:41;100217.84;;;5.67;93.87
73952;BME280;62304;47.662;18.324;2023-11-19T15:42:45;100212.69;;;5.66;94.51
73952;BME280;62304;47.662;18.324;2023-11-19T15:45:49;100218.59;;;5.56;94.71
73952;BME280;62304;47.662;18.324;2023-11-19T15:48:52;100222.63;;;5.58;94.47
73952;BME280;62304;47.662;18.324;2023-11-19T15:51:56;100201.88;;;5.49;94.08
73952;BME280;62304;47.662;18.324;2023-11-19T15:54:59;100188.50;;;5.27;95.59
73952;BME280;62304;47.662;18.324;2023-11-19T15:58:03;100200.06;;;5.20;96.55
73952;BME280;62304;47.662;18.324;2023-11-19T16:01:07;100170.94;;;5.19;97.03
73952;BME280;62304;47.662;18.324;2023-11-19T16:04:14;100166.34;;;5.11;99.47
73952;BME280;62304;47.662;18.324;2023-11-19T16:07:18;100165.94;;;5.21;97.14
73952;BME280;62304;47.662;18.324;2023-11-19T16:10:23;100178.97;;;5.12;97.69
73952;BME280;62304;47.662;18.324;2023-11-19T16:13:28;100176.91;;;5.09;98.71
73952;BME280;62304;47.662;18.324;2023-11-19T16:16:31;100178.63;;;5.14;98.42